<?xml version="1.0" encoding="UTF-8" standalone="no" ?>
<gpx xmlns="http://www.topografix.com/GPX/1/1" xmlns:xsi="http://www.w3.org/2001/XMLSchema-instance" xsi:schemaLocation="http://www.topografix.com/GPX/1/1 http://www.topografix.com/GPX/1/1/gpx.xsd" version="1.1" creator="VisuGPX - https://www.visugpx.com">
  <metadata>
    <name>Petite sortie à vélo pour se mettre en forme !</name>
    <desc><![CDATA[Petit tour en VTT de 30 minutes à l'ouest de Saint-Gély-du-Fesc]]></desc>
  </metadata>
  <trk>
    <name><![CDATA[Sortie à vélo décrassage !]]></name>
    <trkseg>
      <trkpt lat="43.68877" lon="3.80202">
        <ele>116.7</ele>
        <time>2020-08-12T07:25:57Z</time>
      </trkpt>
      <trkpt lat="43.68877" lon="3.80202">
        <ele>116.7</ele>
        <time>2020-08-12T07:25:58Z</time>
      </trkpt>
      <trkpt lat="43.68876" lon="3.80197">
        <ele>116.8</ele>
        <time>2020-08-12T07:26:04Z</time>
      </trkpt>
      <trkpt lat="43.68888" lon="3.80123">
        <ele>119.4</ele>
        <time>2020-08-12T07:26:22Z</time>
      </trkpt>
      <trkpt lat="43.6889" lon="3.80115">
        <ele>119.8</ele>
        <time>2020-08-12T07:26:24Z</time>
      </trkpt>
      <trkpt lat="43.68903" lon="3.80075">
        <ele>121.7</ele>
        <time>2020-08-12T07:26:34Z</time>
      </trkpt>
      <trkpt lat="43.6894" lon="3.80025">
        <ele>124.3</ele>
        <time>2020-08-12T07:26:51Z</time>
      </trkpt>
      <trkpt lat="43.68964" lon="3.79989">
        <ele>126.8</ele>
        <time>2020-08-12T07:27:04Z</time>
      </trkpt>
      <trkpt lat="43.68916" lon="3.79957">
        <ele>125.4</ele>
        <time>2020-08-12T07:27:18Z</time>
      </trkpt>
      <trkpt lat="43.68894" lon="3.79942">
        <ele>125.3</ele>
        <time>2020-08-12T07:27:24Z</time>
      </trkpt>
      <trkpt lat="43.68875" lon="3.79929">
        <ele>125.6</ele>
        <time>2020-08-12T07:27:29Z</time>
      </trkpt>
      <trkpt lat="43.68824" lon="3.79905">
        <ele>127.9</ele>
        <time>2020-08-12T07:27:43Z</time>
      </trkpt>
      <trkpt lat="43.68811" lon="3.799">
        <ele>128.6</ele>
        <time>2020-08-12T07:27:47Z</time>
      </trkpt>
      <trkpt lat="43.68757" lon="3.79885">
        <ele>129.2</ele>
        <time>2020-08-12T07:28:02Z</time>
      </trkpt>
      <trkpt lat="43.68748" lon="3.79879">
        <ele>128.7</ele>
        <time>2020-08-12T07:28:04Z</time>
      </trkpt>
      <trkpt lat="43.68738" lon="3.7987">
        <ele>127.8</ele>
        <time>2020-08-12T07:28:06Z</time>
      </trkpt>
      <trkpt lat="43.68707" lon="3.79845">
        <ele>125.3</ele>
        <time>2020-08-12T07:28:11Z</time>
      </trkpt>
      <trkpt lat="43.68651" lon="3.79807">
        <ele>121.4</ele>
        <time>2020-08-12T07:28:18Z</time>
      </trkpt>
      <trkpt lat="43.68601" lon="3.7977">
        <ele>117.3</ele>
        <time>2020-08-12T07:28:24Z</time>
      </trkpt>
      <trkpt lat="43.68595" lon="3.79763">
        <ele>116.8</ele>
        <time>2020-08-12T07:28:25Z</time>
      </trkpt>
      <trkpt lat="43.68589" lon="3.79748">
        <ele>116</ele>
        <time>2020-08-12T07:28:27Z</time>
      </trkpt>
      <trkpt lat="43.68599" lon="3.79728">
        <ele>116</ele>
        <time>2020-08-12T07:28:30Z</time>
      </trkpt>
      <trkpt lat="43.68643" lon="3.79677">
        <ele>116.9</ele>
        <time>2020-08-12T07:28:41Z</time>
      </trkpt>
      <trkpt lat="43.68656" lon="3.79657">
        <ele>117.3</ele>
        <time>2020-08-12T07:28:45Z</time>
      </trkpt>
      <trkpt lat="43.68665" lon="3.79631">
        <ele>118.6</ele>
        <time>2020-08-12T07:28:50Z</time>
      </trkpt>
      <trkpt lat="43.68667" lon="3.79627">
        <ele>118.8</ele>
        <time>2020-08-12T07:28:51Z</time>
      </trkpt>
      <trkpt lat="43.68669" lon="3.7962">
        <ele>119.2</ele>
        <time>2020-08-12T07:28:53Z</time>
      </trkpt>
      <trkpt lat="43.68695" lon="3.79596">
        <ele>121.3</ele>
        <time>2020-08-12T07:29:06Z</time>
      </trkpt>
      <trkpt lat="43.68703" lon="3.79588">
        <ele>122.1</ele>
        <time>2020-08-12T07:29:11Z</time>
      </trkpt>
      <trkpt lat="43.6871" lon="3.79577">
        <ele>122.7</ele>
        <time>2020-08-12T07:29:15Z</time>
      </trkpt>
      <trkpt lat="43.68711" lon="3.79575">
        <ele>122.8</ele>
        <time>2020-08-12T07:29:16Z</time>
      </trkpt>
      <trkpt lat="43.68759" lon="3.79541">
        <ele>125.3</ele>
        <time>2020-08-12T07:29:38Z</time>
      </trkpt>
      <trkpt lat="43.68778" lon="3.79519">
        <ele>127.3</ele>
        <time>2020-08-12T07:29:50Z</time>
      </trkpt>
      <trkpt lat="43.68786" lon="3.7951">
        <ele>128.2</ele>
        <time>2020-08-12T07:29:55Z</time>
      </trkpt>
      <trkpt lat="43.68795" lon="3.79501">
        <ele>129.3</ele>
        <time>2020-08-12T07:30:00Z</time>
      </trkpt>
      <trkpt lat="43.68801" lon="3.79493">
        <ele>130.1</ele>
        <time>2020-08-12T07:30:04Z</time>
      </trkpt>
      <trkpt lat="43.68835" lon="3.79462">
        <ele>133.8</ele>
        <time>2020-08-12T07:30:24Z</time>
      </trkpt>
      <trkpt lat="43.68849" lon="3.79445">
        <ele>135.5</ele>
        <time>2020-08-12T07:30:34Z</time>
      </trkpt>
      <trkpt lat="43.68857" lon="3.79436">
        <ele>136.5</ele>
        <time>2020-08-12T07:30:39Z</time>
      </trkpt>
      <trkpt lat="43.68866" lon="3.79421">
        <ele>138</ele>
        <time>2020-08-12T07:30:47Z</time>
      </trkpt>
      <trkpt lat="43.68872" lon="3.79411">
        <ele>138.9</ele>
        <time>2020-08-12T07:30:52Z</time>
      </trkpt>
      <trkpt lat="43.68879" lon="3.79397">
        <ele>140.3</ele>
        <time>2020-08-12T07:31:00Z</time>
      </trkpt>
      <trkpt lat="43.68881" lon="3.79394">
        <ele>140.6</ele>
        <time>2020-08-12T07:31:02Z</time>
      </trkpt>
      <trkpt lat="43.68885" lon="3.79387">
        <ele>141.3</ele>
        <time>2020-08-12T07:31:06Z</time>
      </trkpt>
      <trkpt lat="43.68891" lon="3.79376">
        <ele>142.2</ele>
        <time>2020-08-12T07:31:12Z</time>
      </trkpt>
      <trkpt lat="43.68932" lon="3.79326">
        <ele>148.2</ele>
        <time>2020-08-12T07:31:47Z</time>
      </trkpt>
      <trkpt lat="43.68936" lon="3.79321">
        <ele>148.8</ele>
        <time>2020-08-12T07:31:50Z</time>
      </trkpt>
      <trkpt lat="43.68937" lon="3.79317">
        <ele>149.1</ele>
        <time>2020-08-12T07:31:52Z</time>
      </trkpt>
      <trkpt lat="43.68937" lon="3.79314">
        <ele>149.4</ele>
        <time>2020-08-12T07:31:54Z</time>
      </trkpt>
      <trkpt lat="43.68935" lon="3.79311">
        <ele>149.7</ele>
        <time>2020-08-12T07:31:56Z</time>
      </trkpt>
      <trkpt lat="43.68919" lon="3.79311">
        <ele>151</ele>
        <time>2020-08-12T07:32:05Z</time>
      </trkpt>
      <trkpt lat="43.68913" lon="3.7931">
        <ele>151.4</ele>
        <time>2020-08-12T07:32:08Z</time>
      </trkpt>
      <trkpt lat="43.68894" lon="3.79309">
        <ele>153</ele>
        <time>2020-08-12T07:32:18Z</time>
      </trkpt>
      <trkpt lat="43.6889" lon="3.79308">
        <ele>153.5</ele>
        <time>2020-08-12T07:32:20Z</time>
      </trkpt>
      <trkpt lat="43.68888" lon="3.79304">
        <ele>153.9</ele>
        <time>2020-08-12T07:32:22Z</time>
      </trkpt>
      <trkpt lat="43.68889" lon="3.79298">
        <ele>154.3</ele>
        <time>2020-08-12T07:32:24Z</time>
      </trkpt>
      <trkpt lat="43.68917" lon="3.79279">
        <ele>157.5</ele>
        <time>2020-08-12T07:32:42Z</time>
      </trkpt>
      <trkpt lat="43.68935" lon="3.79275">
        <ele>158.9</ele>
        <time>2020-08-12T07:32:53Z</time>
      </trkpt>
      <trkpt lat="43.68953" lon="3.79274">
        <ele>160.1</ele>
        <time>2020-08-12T07:33:02Z</time>
      </trkpt>
      <trkpt lat="43.68973" lon="3.79277">
        <ele>161.6</ele>
        <time>2020-08-12T07:33:12Z</time>
      </trkpt>
      <trkpt lat="43.68985" lon="3.79271">
        <ele>162.8</ele>
        <time>2020-08-12T07:33:19Z</time>
      </trkpt>
      <trkpt lat="43.68985" lon="3.79263">
        <ele>163.4</ele>
        <time>2020-08-12T07:33:22Z</time>
      </trkpt>
      <trkpt lat="43.68985" lon="3.79261">
        <ele>163.6</ele>
        <time>2020-08-12T07:33:23Z</time>
      </trkpt>
      <trkpt lat="43.68983" lon="3.79241">
        <ele>165</ele>
        <time>2020-08-12T07:33:32Z</time>
      </trkpt>
      <trkpt lat="43.68981" lon="3.79231">
        <ele>165.7</ele>
        <time>2020-08-12T07:33:36Z</time>
      </trkpt>
      <trkpt lat="43.68983" lon="3.79211">
        <ele>166.8</ele>
        <time>2020-08-12T07:33:44Z</time>
      </trkpt>
      <trkpt lat="43.68991" lon="3.79176">
        <ele>167.7</ele>
        <time>2020-08-12T07:33:55Z</time>
      </trkpt>
      <trkpt lat="43.69007" lon="3.79118">
        <ele>167.6</ele>
        <time>2020-08-12T07:34:11Z</time>
      </trkpt>
      <trkpt lat="43.69008" lon="3.79099">
        <ele>167.4</ele>
        <time>2020-08-12T07:34:14Z</time>
      </trkpt>
      <trkpt lat="43.6901" lon="3.7908">
        <ele>167.7</ele>
        <time>2020-08-12T07:34:18Z</time>
      </trkpt>
      <trkpt lat="43.69012" lon="3.79032">
        <ele>169.5</ele>
        <time>2020-08-12T07:34:31Z</time>
      </trkpt>
      <trkpt lat="43.69011" lon="3.79022">
        <ele>169.5</ele>
        <time>2020-08-12T07:34:34Z</time>
      </trkpt>
      <trkpt lat="43.69022" lon="3.78963">
        <ele>173.6</ele>
        <time>2020-08-12T07:34:56Z</time>
      </trkpt>
      <trkpt lat="43.69025" lon="3.78954">
        <ele>174.7</ele>
        <time>2020-08-12T07:35:00Z</time>
      </trkpt>
      <trkpt lat="43.69027" lon="3.78943">
        <ele>175.7</ele>
        <time>2020-08-12T07:35:05Z</time>
      </trkpt>
      <trkpt lat="43.69029" lon="3.7893">
        <ele>176.8</ele>
        <time>2020-08-12T07:35:11Z</time>
      </trkpt>
      <trkpt lat="43.69029" lon="3.78923">
        <ele>177.2</ele>
        <time>2020-08-12T07:35:14Z</time>
      </trkpt>
      <trkpt lat="43.69029" lon="3.78883">
        <ele>179.1</ele>
        <time>2020-08-12T07:35:31Z</time>
      </trkpt>
      <trkpt lat="43.69028" lon="3.78874">
        <ele>179.5</ele>
        <time>2020-08-12T07:35:35Z</time>
      </trkpt>
      <trkpt lat="43.69027" lon="3.78837">
        <ele>180.6</ele>
        <time>2020-08-12T07:35:50Z</time>
      </trkpt>
      <trkpt lat="43.69028" lon="3.78807">
        <ele>181.8</ele>
        <time>2020-08-12T07:36:02Z</time>
      </trkpt>
      <trkpt lat="43.69028" lon="3.78792">
        <ele>182.4</ele>
        <time>2020-08-12T07:36:08Z</time>
      </trkpt>
      <trkpt lat="43.69028" lon="3.78771">
        <ele>182.9</ele>
        <time>2020-08-12T07:36:17Z</time>
      </trkpt>
      <trkpt lat="43.69029" lon="3.78756">
        <ele>183.2</ele>
        <time>2020-08-12T07:36:27Z</time>
      </trkpt>
      <trkpt lat="43.6903" lon="3.78756">
        <ele>183.2</ele>
        <time>2020-08-12T07:36:53Z</time>
      </trkpt>
      <trkpt lat="43.6903" lon="3.78756">
        <ele>183.2</ele>
        <time>2020-08-12T07:36:59Z</time>
      </trkpt>
      <trkpt lat="43.6903" lon="3.78756">
        <ele>183.2</ele>
        <time>2020-08-12T07:37:05Z</time>
      </trkpt>
      <trkpt lat="43.6903" lon="3.78756">
        <ele>183.2</ele>
        <time>2020-08-12T07:37:10Z</time>
      </trkpt>
      <trkpt lat="43.6903" lon="3.78756">
        <ele>183.2</ele>
        <time>2020-08-12T07:37:19Z</time>
      </trkpt>
      <trkpt lat="43.6903" lon="3.78756">
        <ele>183.2</ele>
        <time>2020-08-12T07:37:21Z</time>
      </trkpt>
      <trkpt lat="43.6903" lon="3.78756">
        <ele>183.2</ele>
        <time>2020-08-12T07:37:27Z</time>
      </trkpt>
      <trkpt lat="43.6903" lon="3.78756">
        <ele>183.2</ele>
        <time>2020-08-12T07:37:33Z</time>
      </trkpt>
      <trkpt lat="43.6903" lon="3.78756">
        <ele>183.2</ele>
        <time>2020-08-12T07:37:43Z</time>
      </trkpt>
      <trkpt lat="43.6903" lon="3.78756">
        <ele>183.2</ele>
        <time>2020-08-12T07:37:46Z</time>
      </trkpt>
      <trkpt lat="43.6903" lon="3.78756">
        <ele>183.2</ele>
        <time>2020-08-12T07:38:17Z</time>
      </trkpt>
      <trkpt lat="43.6903" lon="3.78756">
        <ele>183.2</ele>
        <time>2020-08-12T07:38:24Z</time>
      </trkpt>
      <trkpt lat="43.69029" lon="3.78755">
        <ele>183.2</ele>
        <time>2020-08-12T07:38:31Z</time>
      </trkpt>
      <trkpt lat="43.69017" lon="3.78723">
        <ele>183.2</ele>
        <time>2020-08-12T07:38:42Z</time>
      </trkpt>
      <trkpt lat="43.68993" lon="3.78699">
        <ele>181.9</ele>
        <time>2020-08-12T07:38:51Z</time>
      </trkpt>
      <trkpt lat="43.68986" lon="3.78693">
        <ele>181.6</ele>
        <time>2020-08-12T07:38:54Z</time>
      </trkpt>
      <trkpt lat="43.68992" lon="3.78682">
        <ele>181.5</ele>
        <time>2020-08-12T07:39:20Z</time>
      </trkpt>
      <trkpt lat="43.68996" lon="3.78681">
        <ele>181.5</ele>
        <time>2020-08-12T07:39:24Z</time>
      </trkpt>
      <trkpt lat="43.68997" lon="3.78681">
        <ele>181.5</ele>
        <time>2020-08-12T07:39:25Z</time>
      </trkpt>
      <trkpt lat="43.69" lon="3.7868">
        <ele>181.6</ele>
        <time>2020-08-12T07:39:29Z</time>
      </trkpt>
      <trkpt lat="43.69" lon="3.7868">
        <ele>181.6</ele>
        <time>2020-08-12T07:39:30Z</time>
      </trkpt>
      <trkpt lat="43.69001" lon="3.7868">
        <ele>181.6</ele>
        <time>2020-08-12T07:39:31Z</time>
      </trkpt>
      <trkpt lat="43.69001" lon="3.7868">
        <ele>181.6</ele>
        <time>2020-08-12T07:39:32Z</time>
      </trkpt>
      <trkpt lat="43.69003" lon="3.78679">
        <ele>181.7</ele>
        <time>2020-08-12T07:39:37Z</time>
      </trkpt>
      <trkpt lat="43.69007" lon="3.7868">
        <ele>181.7</ele>
        <time>2020-08-12T07:39:39Z</time>
      </trkpt>
      <trkpt lat="43.69025" lon="3.78688">
        <ele>182.2</ele>
        <time>2020-08-12T07:39:49Z</time>
      </trkpt>
      <trkpt lat="43.69032" lon="3.78693">
        <ele>182.4</ele>
        <time>2020-08-12T07:39:52Z</time>
      </trkpt>
      <trkpt lat="43.69034" lon="3.78695">
        <ele>182.5</ele>
        <time>2020-08-12T07:39:53Z</time>
      </trkpt>
      <trkpt lat="43.69039" lon="3.78698">
        <ele>182.6</ele>
        <time>2020-08-12T07:39:56Z</time>
      </trkpt>
      <trkpt lat="43.69042" lon="3.78701">
        <ele>182.7</ele>
        <time>2020-08-12T07:39:58Z</time>
      </trkpt>
      <trkpt lat="43.69054" lon="3.78706">
        <ele>183.2</ele>
        <time>2020-08-12T07:40:06Z</time>
      </trkpt>
      <trkpt lat="43.69058" lon="3.78712">
        <ele>183.4</ele>
        <time>2020-08-12T07:40:09Z</time>
      </trkpt>
      <trkpt lat="43.69061" lon="3.78719">
        <ele>183.7</ele>
        <time>2020-08-12T07:40:13Z</time>
      </trkpt>
      <trkpt lat="43.69076" lon="3.78738">
        <ele>184.6</ele>
        <time>2020-08-12T07:40:48Z</time>
      </trkpt>
      <trkpt lat="43.69078" lon="3.78742">
        <ele>184.7</ele>
        <time>2020-08-12T07:40:51Z</time>
      </trkpt>
      <trkpt lat="43.69099" lon="3.78778">
        <ele>184.3</ele>
        <time>2020-08-12T07:41:09Z</time>
      </trkpt>
      <trkpt lat="43.69127" lon="3.78832">
        <ele>185.5</ele>
        <time>2020-08-12T07:41:30Z</time>
      </trkpt>
      <trkpt lat="43.69138" lon="3.78848">
        <ele>185.7</ele>
        <time>2020-08-12T07:41:37Z</time>
      </trkpt>
      <trkpt lat="43.69142" lon="3.78852">
        <ele>185.7</ele>
        <time>2020-08-12T07:41:39Z</time>
      </trkpt>
      <trkpt lat="43.69161" lon="3.78862">
        <ele>185.3</ele>
        <time>2020-08-12T07:41:47Z</time>
      </trkpt>
      <trkpt lat="43.69169" lon="3.78869">
        <ele>184.9</ele>
        <time>2020-08-12T07:41:50Z</time>
      </trkpt>
      <trkpt lat="43.69172" lon="3.78871">
        <ele>184.7</ele>
        <time>2020-08-12T07:41:51Z</time>
      </trkpt>
      <trkpt lat="43.69174" lon="3.78874">
        <ele>184.5</ele>
        <time>2020-08-12T07:41:52Z</time>
      </trkpt>
      <trkpt lat="43.69198" lon="3.78888">
        <ele>182.4</ele>
        <time>2020-08-12T07:42:01Z</time>
      </trkpt>
      <trkpt lat="43.69226" lon="3.78899">
        <ele>179.2</ele>
        <time>2020-08-12T07:42:08Z</time>
      </trkpt>
      <trkpt lat="43.69239" lon="3.78903">
        <ele>177.8</ele>
        <time>2020-08-12T07:42:11Z</time>
      </trkpt>
      <trkpt lat="43.69257" lon="3.78925">
        <ele>175.4</ele>
        <time>2020-08-12T07:42:16Z</time>
      </trkpt>
      <trkpt lat="43.69267" lon="3.78935">
        <ele>174.4</ele>
        <time>2020-08-12T07:42:18Z</time>
      </trkpt>
      <trkpt lat="43.69296" lon="3.78999">
        <ele>171.1</ele>
        <time>2020-08-12T07:42:26Z</time>
      </trkpt>
      <trkpt lat="43.69306" lon="3.7901">
        <ele>170.4</ele>
        <time>2020-08-12T07:42:28Z</time>
      </trkpt>
      <trkpt lat="43.69319" lon="3.79017">
        <ele>169.8</ele>
        <time>2020-08-12T07:42:30Z</time>
      </trkpt>
      <trkpt lat="43.69325" lon="3.79018">
        <ele>169.4</ele>
        <time>2020-08-12T07:42:31Z</time>
      </trkpt>
      <trkpt lat="43.69332" lon="3.79017">
        <ele>168.8</ele>
        <time>2020-08-12T07:42:32Z</time>
      </trkpt>
      <trkpt lat="43.69344" lon="3.7901">
        <ele>168.6</ele>
        <time>2020-08-12T07:42:34Z</time>
      </trkpt>
      <trkpt lat="43.69366" lon="3.78993">
        <ele>168.9</ele>
        <time>2020-08-12T07:42:38Z</time>
      </trkpt>
      <trkpt lat="43.69376" lon="3.78987">
        <ele>169.3</ele>
        <time>2020-08-12T07:42:40Z</time>
      </trkpt>
      <trkpt lat="43.69405" lon="3.78972">
        <ele>171.1</ele>
        <time>2020-08-12T07:42:49Z</time>
      </trkpt>
      <trkpt lat="43.69412" lon="3.78959">
        <ele>171.6</ele>
        <time>2020-08-12T07:42:52Z</time>
      </trkpt>
      <trkpt lat="43.69442" lon="3.78939">
        <ele>172.9</ele>
        <time>2020-08-12T07:43:02Z</time>
      </trkpt>
      <trkpt lat="43.69456" lon="3.7894">
        <ele>173.6</ele>
        <time>2020-08-12T07:43:08Z</time>
      </trkpt>
      <trkpt lat="43.69496" lon="3.78944">
        <ele>175.8</ele>
        <time>2020-08-12T07:43:29Z</time>
      </trkpt>
      <trkpt lat="43.69498" lon="3.78945">
        <ele>175.9</ele>
        <time>2020-08-12T07:43:30Z</time>
      </trkpt>
      <trkpt lat="43.695" lon="3.78944">
        <ele>176</ele>
        <time>2020-08-12T07:43:31Z</time>
      </trkpt>
      <trkpt lat="43.69528" lon="3.78948">
        <ele>178.2</ele>
        <time>2020-08-12T07:43:47Z</time>
      </trkpt>
      <trkpt lat="43.69567" lon="3.78953">
        <ele>181.2</ele>
        <time>2020-08-12T07:44:08Z</time>
      </trkpt>
      <trkpt lat="43.69597" lon="3.78926">
        <ele>182.5</ele>
        <time>2020-08-12T07:44:26Z</time>
      </trkpt>
      <trkpt lat="43.6962" lon="3.78923">
        <ele>182.2</ele>
        <time>2020-08-12T07:44:39Z</time>
      </trkpt>
      <trkpt lat="43.6962" lon="3.78923">
        <ele>182.2</ele>
        <time>2020-08-12T07:44:49Z</time>
      </trkpt>
      <trkpt lat="43.6962" lon="3.78923">
        <ele>182.2</ele>
        <time>2020-08-12T07:44:56Z</time>
      </trkpt>
      <trkpt lat="43.6962" lon="3.78923">
        <ele>182.2</ele>
        <time>2020-08-12T07:45:02Z</time>
      </trkpt>
      <trkpt lat="43.6962" lon="3.78923">
        <ele>182.2</ele>
        <time>2020-08-12T07:45:07Z</time>
      </trkpt>
      <trkpt lat="43.6962" lon="3.78923">
        <ele>182.2</ele>
        <time>2020-08-12T07:45:22Z</time>
      </trkpt>
      <trkpt lat="43.6962" lon="3.78923">
        <ele>182.2</ele>
        <time>2020-08-12T07:45:25Z</time>
      </trkpt>
      <trkpt lat="43.6962" lon="3.78923">
        <ele>182.2</ele>
        <time>2020-08-12T07:45:26Z</time>
      </trkpt>
      <trkpt lat="43.6962" lon="3.78923">
        <ele>182.2</ele>
        <time>2020-08-12T07:45:27Z</time>
      </trkpt>
      <trkpt lat="43.6962" lon="3.78923">
        <ele>182.2</ele>
        <time>2020-08-12T07:45:28Z</time>
      </trkpt>
      <trkpt lat="43.69626" lon="3.78924">
        <ele>182</ele>
        <time>2020-08-12T07:45:43Z</time>
      </trkpt>
      <trkpt lat="43.69638" lon="3.78929">
        <ele>181.3</ele>
        <time>2020-08-12T07:45:47Z</time>
      </trkpt>
      <trkpt lat="43.69641" lon="3.78931">
        <ele>181.1</ele>
        <time>2020-08-12T07:45:48Z</time>
      </trkpt>
      <trkpt lat="43.69669" lon="3.78936">
        <ele>178.8</ele>
        <time>2020-08-12T07:45:57Z</time>
      </trkpt>
      <trkpt lat="43.69673" lon="3.7894">
        <ele>178.4</ele>
        <time>2020-08-12T07:45:59Z</time>
      </trkpt>
      <trkpt lat="43.69693" lon="3.78973">
        <ele>175.6</ele>
        <time>2020-08-12T07:46:07Z</time>
      </trkpt>
      <trkpt lat="43.69724" lon="3.79">
        <ele>174</ele>
        <time>2020-08-12T07:46:13Z</time>
      </trkpt>
      <trkpt lat="43.69729" lon="3.79003">
        <ele>174</ele>
        <time>2020-08-12T07:46:14Z</time>
      </trkpt>
      <trkpt lat="43.69783" lon="3.79011">
        <ele>176.5</ele>
        <time>2020-08-12T07:46:29Z</time>
      </trkpt>
      <trkpt lat="43.69785" lon="3.79011">
        <ele>176.7</ele>
        <time>2020-08-12T07:46:30Z</time>
      </trkpt>
      <trkpt lat="43.69808" lon="3.79007">
        <ele>178.1</ele>
        <time>2020-08-12T07:46:39Z</time>
      </trkpt>
      <trkpt lat="43.69832" lon="3.79001">
        <ele>179.6</ele>
        <time>2020-08-12T07:46:47Z</time>
      </trkpt>
      <trkpt lat="43.69847" lon="3.79">
        <ele>180.6</ele>
        <time>2020-08-12T07:46:52Z</time>
      </trkpt>
      <trkpt lat="43.69857" lon="3.79005">
        <ele>181.3</ele>
        <time>2020-08-12T07:46:56Z</time>
      </trkpt>
      <trkpt lat="43.69868" lon="3.79009">
        <ele>181.7</ele>
        <time>2020-08-12T07:47:05Z</time>
      </trkpt>
      <trkpt lat="43.69868" lon="3.79009">
        <ele>181.7</ele>
        <time>2020-08-12T07:47:06Z</time>
      </trkpt>
      <trkpt lat="43.69869" lon="3.79009">
        <ele>181.7</ele>
        <time>2020-08-12T07:47:07Z</time>
      </trkpt>
      <trkpt lat="43.6987" lon="3.7901">
        <ele>181.7</ele>
        <time>2020-08-12T07:47:08Z</time>
      </trkpt>
      <trkpt lat="43.69872" lon="3.7901">
        <ele>181.7</ele>
        <time>2020-08-12T07:47:09Z</time>
      </trkpt>
      <trkpt lat="43.6988" lon="3.79012">
        <ele>181.6</ele>
        <time>2020-08-12T07:47:12Z</time>
      </trkpt>
      <trkpt lat="43.69887" lon="3.79011">
        <ele>181.2</ele>
        <time>2020-08-12T07:47:14Z</time>
      </trkpt>
      <trkpt lat="43.69895" lon="3.79009">
        <ele>180.8</ele>
        <time>2020-08-12T07:47:16Z</time>
      </trkpt>
      <trkpt lat="43.69938" lon="3.78999">
        <ele>178.8</ele>
        <time>2020-08-12T07:47:25Z</time>
      </trkpt>
      <trkpt lat="43.69949" lon="3.78998">
        <ele>178.5</ele>
        <time>2020-08-12T07:47:27Z</time>
      </trkpt>
      <trkpt lat="43.69964" lon="3.78996">
        <ele>177.9</ele>
        <time>2020-08-12T07:47:30Z</time>
      </trkpt>
      <trkpt lat="43.69979" lon="3.7899">
        <ele>177.3</ele>
        <time>2020-08-12T07:47:33Z</time>
      </trkpt>
      <trkpt lat="43.70027" lon="3.78954">
        <ele>176.6</ele>
        <time>2020-08-12T07:47:43Z</time>
      </trkpt>
      <trkpt lat="43.70046" lon="3.78946">
        <ele>177.3</ele>
        <time>2020-08-12T07:47:48Z</time>
      </trkpt>
      <trkpt lat="43.70064" lon="3.78972">
        <ele>179.5</ele>
        <time>2020-08-12T07:47:55Z</time>
      </trkpt>
      <trkpt lat="43.70072" lon="3.78977">
        <ele>180.5</ele>
        <time>2020-08-12T07:47:58Z</time>
      </trkpt>
      <trkpt lat="43.70115" lon="3.78977">
        <ele>185.8</ele>
        <time>2020-08-12T07:48:17Z</time>
      </trkpt>
      <trkpt lat="43.70118" lon="3.78977">
        <ele>186.2</ele>
        <time>2020-08-12T07:48:19Z</time>
      </trkpt>
      <trkpt lat="43.70127" lon="3.78978">
        <ele>187.3</ele>
        <time>2020-08-12T07:48:24Z</time>
      </trkpt>
      <trkpt lat="43.70145" lon="3.78982">
        <ele>189.3</ele>
        <time>2020-08-12T07:48:33Z</time>
      </trkpt>
      <trkpt lat="43.70154" lon="3.7898">
        <ele>190.1</ele>
        <time>2020-08-12T07:48:38Z</time>
      </trkpt>
      <trkpt lat="43.70164" lon="3.78985">
        <ele>191</ele>
        <time>2020-08-12T07:48:44Z</time>
      </trkpt>
      <trkpt lat="43.70172" lon="3.78989">
        <ele>191</ele>
        <time>2020-08-12T07:48:49Z</time>
      </trkpt>
      <trkpt lat="43.70194" lon="3.78999">
        <ele>190.9</ele>
        <time>2020-08-12T07:49:10Z</time>
      </trkpt>
      <trkpt lat="43.70189" lon="3.78997">
        <ele>190.9</ele>
        <time>2020-08-12T07:49:12Z</time>
      </trkpt>
      <trkpt lat="43.7018" lon="3.79">
        <ele>190.9</ele>
        <time>2020-08-12T07:49:16Z</time>
      </trkpt>
      <trkpt lat="43.70175" lon="3.79049">
        <ele>187.1</ele>
        <time>2020-08-12T07:49:23Z</time>
      </trkpt>
      <trkpt lat="43.70173" lon="3.79065">
        <ele>186.7</ele>
        <time>2020-08-12T07:49:26Z</time>
      </trkpt>
      <trkpt lat="43.70168" lon="3.79097">
        <ele>185.4</ele>
        <time>2020-08-12T07:49:31Z</time>
      </trkpt>
      <trkpt lat="43.70163" lon="3.79122">
        <ele>184.1</ele>
        <time>2020-08-12T07:49:34Z</time>
      </trkpt>
      <trkpt lat="43.70155" lon="3.7916">
        <ele>182.5</ele>
        <time>2020-08-12T07:49:38Z</time>
      </trkpt>
      <trkpt lat="43.70152" lon="3.79169">
        <ele>182.1</ele>
        <time>2020-08-12T07:49:39Z</time>
      </trkpt>
      <trkpt lat="43.70146" lon="3.79193">
        <ele>181.6</ele>
        <time>2020-08-12T07:49:42Z</time>
      </trkpt>
      <trkpt lat="43.70139" lon="3.79214">
        <ele>181.2</ele>
        <time>2020-08-12T07:49:48Z</time>
      </trkpt>
      <trkpt lat="43.70131" lon="3.79238">
        <ele>180.6</ele>
        <time>2020-08-12T07:49:53Z</time>
      </trkpt>
      <trkpt lat="43.70106" lon="3.79307">
        <ele>176.5</ele>
        <time>2020-08-12T07:50:03Z</time>
      </trkpt>
      <trkpt lat="43.70073" lon="3.79373">
        <ele>174.6</ele>
        <time>2020-08-12T07:50:11Z</time>
      </trkpt>
      <trkpt lat="43.70067" lon="3.79382">
        <ele>174.4</ele>
        <time>2020-08-12T07:50:13Z</time>
      </trkpt>
      <trkpt lat="43.70067" lon="3.79386">
        <ele>174.4</ele>
        <time>2020-08-12T07:50:15Z</time>
      </trkpt>
      <trkpt lat="43.70061" lon="3.79393">
        <ele>174.3</ele>
        <time>2020-08-12T07:50:19Z</time>
      </trkpt>
      <trkpt lat="43.70058" lon="3.79397">
        <ele>174.2</ele>
        <time>2020-08-12T07:50:22Z</time>
      </trkpt>
      <trkpt lat="43.70031" lon="3.79442">
        <ele>171.5</ele>
        <time>2020-08-12T07:50:33Z</time>
      </trkpt>
      <trkpt lat="43.70024" lon="3.79459">
        <ele>170.2</ele>
        <time>2020-08-12T07:50:35Z</time>
      </trkpt>
      <trkpt lat="43.70017" lon="3.79477">
        <ele>169.2</ele>
        <time>2020-08-12T07:50:37Z</time>
      </trkpt>
      <trkpt lat="43.69986" lon="3.79527">
        <ele>166</ele>
        <time>2020-08-12T07:50:43Z</time>
      </trkpt>
      <trkpt lat="43.69973" lon="3.79543">
        <ele>164.6</ele>
        <time>2020-08-12T07:50:45Z</time>
      </trkpt>
      <trkpt lat="43.69943" lon="3.79597">
        <ele>159.3</ele>
        <time>2020-08-12T07:50:51Z</time>
      </trkpt>
      <trkpt lat="43.69921" lon="3.79636">
        <ele>154.9</ele>
        <time>2020-08-12T07:50:56Z</time>
      </trkpt>
      <trkpt lat="43.69914" lon="3.79651">
        <ele>153.7</ele>
        <time>2020-08-12T07:50:58Z</time>
      </trkpt>
      <trkpt lat="43.69892" lon="3.79686">
        <ele>149.5</ele>
        <time>2020-08-12T07:51:02Z</time>
      </trkpt>
      <trkpt lat="43.69863" lon="3.79729">
        <ele>145.1</ele>
        <time>2020-08-12T07:51:06Z</time>
      </trkpt>
      <trkpt lat="43.69844" lon="3.79743">
        <ele>144.5</ele>
        <time>2020-08-12T07:51:08Z</time>
      </trkpt>
      <trkpt lat="43.69823" lon="3.79747">
        <ele>144.2</ele>
        <time>2020-08-12T07:51:10Z</time>
      </trkpt>
      <trkpt lat="43.69804" lon="3.79742">
        <ele>144</ele>
        <time>2020-08-12T07:51:12Z</time>
      </trkpt>
      <trkpt lat="43.69789" lon="3.79731">
        <ele>143.8</ele>
        <time>2020-08-12T07:51:14Z</time>
      </trkpt>
      <trkpt lat="43.69778" lon="3.79714">
        <ele>143.6</ele>
        <time>2020-08-12T07:51:16Z</time>
      </trkpt>
      <trkpt lat="43.69763" lon="3.79689">
        <ele>143.3</ele>
        <time>2020-08-12T07:51:19Z</time>
      </trkpt>
      <trkpt lat="43.69745" lon="3.79673">
        <ele>143.5</ele>
        <time>2020-08-12T07:51:22Z</time>
      </trkpt>
      <trkpt lat="43.69727" lon="3.79665">
        <ele>143.9</ele>
        <time>2020-08-12T07:51:25Z</time>
      </trkpt>
      <trkpt lat="43.69717" lon="3.79658">
        <ele>144.5</ele>
        <time>2020-08-12T07:51:27Z</time>
      </trkpt>
      <trkpt lat="43.69708" lon="3.79657">
        <ele>144.6</ele>
        <time>2020-08-12T07:51:29Z</time>
      </trkpt>
      <trkpt lat="43.697" lon="3.79659">
        <ele>145</ele>
        <time>2020-08-12T07:51:31Z</time>
      </trkpt>
      <trkpt lat="43.6967" lon="3.79704">
        <ele>146.6</ele>
        <time>2020-08-12T07:51:42Z</time>
      </trkpt>
      <trkpt lat="43.69654" lon="3.7973">
        <ele>147</ele>
        <time>2020-08-12T07:51:48Z</time>
      </trkpt>
      <trkpt lat="43.69626" lon="3.79765">
        <ele>147.9</ele>
        <time>2020-08-12T07:51:57Z</time>
      </trkpt>
      <trkpt lat="43.69596" lon="3.79763">
        <ele>150.1</ele>
        <time>2020-08-12T07:52:06Z</time>
      </trkpt>
      <trkpt lat="43.6957" lon="3.79753">
        <ele>151.5</ele>
        <time>2020-08-12T07:52:16Z</time>
      </trkpt>
      <trkpt lat="43.6953" lon="3.79752">
        <ele>152.5</ele>
        <time>2020-08-12T07:52:30Z</time>
      </trkpt>
      <trkpt lat="43.69476" lon="3.79775">
        <ele>150</ele>
        <time>2020-08-12T07:52:41Z</time>
      </trkpt>
      <trkpt lat="43.69429" lon="3.79784">
        <ele>146.3</ele>
        <time>2020-08-12T07:52:47Z</time>
      </trkpt>
      <trkpt lat="43.69368" lon="3.79779">
        <ele>139.8</ele>
        <time>2020-08-12T07:52:53Z</time>
      </trkpt>
      <trkpt lat="43.69306" lon="3.79775">
        <ele>134.2</ele>
        <time>2020-08-12T07:52:58Z</time>
      </trkpt>
      <trkpt lat="43.69282" lon="3.79772">
        <ele>132.6</ele>
        <time>2020-08-12T07:53:00Z</time>
      </trkpt>
      <trkpt lat="43.6926" lon="3.79772">
        <ele>131.6</ele>
        <time>2020-08-12T07:53:02Z</time>
      </trkpt>
      <trkpt lat="43.69242" lon="3.79781">
        <ele>130.8</ele>
        <time>2020-08-12T07:53:04Z</time>
      </trkpt>
      <trkpt lat="43.69234" lon="3.79803">
        <ele>129.9</ele>
        <time>2020-08-12T07:53:06Z</time>
      </trkpt>
      <trkpt lat="43.69227" lon="3.79826">
        <ele>129.2</ele>
        <time>2020-08-12T07:53:08Z</time>
      </trkpt>
      <trkpt lat="43.69214" lon="3.79884">
        <ele>127.4</ele>
        <time>2020-08-12T07:53:13Z</time>
      </trkpt>
      <trkpt lat="43.69214" lon="3.79896">
        <ele>127</ele>
        <time>2020-08-12T07:53:14Z</time>
      </trkpt>
      <trkpt lat="43.69215" lon="3.79908">
        <ele>126.7</ele>
        <time>2020-08-12T07:53:15Z</time>
      </trkpt>
      <trkpt lat="43.69233" lon="3.79989">
        <ele>125.3</ele>
        <time>2020-08-12T07:53:22Z</time>
      </trkpt>
      <trkpt lat="43.69234" lon="3.80016">
        <ele>125.2</ele>
        <time>2020-08-12T07:53:25Z</time>
      </trkpt>
      <trkpt lat="43.69229" lon="3.80019">
        <ele>125.3</ele>
        <time>2020-08-12T07:53:27Z</time>
      </trkpt>
      <trkpt lat="43.69212" lon="3.80005">
        <ele>125.3</ele>
        <time>2020-08-12T07:53:33Z</time>
      </trkpt>
      <trkpt lat="43.69196" lon="3.80035">
        <ele>125.7</ele>
        <time>2020-08-12T07:53:40Z</time>
      </trkpt>
      <trkpt lat="43.69189" lon="3.80042">
        <ele>125.8</ele>
        <time>2020-08-12T07:53:42Z</time>
      </trkpt>
      <trkpt lat="43.6918" lon="3.80045">
        <ele>125.9</ele>
        <time>2020-08-12T07:53:44Z</time>
      </trkpt>
      <trkpt lat="43.69154" lon="3.80041">
        <ele>126.5</ele>
        <time>2020-08-12T07:53:51Z</time>
      </trkpt>
      <trkpt lat="43.6914" lon="3.80022">
        <ele>127.2</ele>
        <time>2020-08-12T07:53:58Z</time>
      </trkpt>
      <trkpt lat="43.69138" lon="3.80021">
        <ele>127.3</ele>
        <time>2020-08-12T07:53:59Z</time>
      </trkpt>
      <trkpt lat="43.69111" lon="3.8005">
        <ele>127.8</ele>
        <time>2020-08-12T07:54:10Z</time>
      </trkpt>
      <trkpt lat="43.6906" lon="3.80028">
        <ele>129.6</ele>
        <time>2020-08-12T07:54:25Z</time>
      </trkpt>
      <trkpt lat="43.69033" lon="3.80017">
        <ele>129.4</ele>
        <time>2020-08-12T07:54:32Z</time>
      </trkpt>
      <trkpt lat="43.68974" lon="3.79996">
        <ele>126.9</ele>
        <time>2020-08-12T07:54:42Z</time>
      </trkpt>
      <trkpt lat="43.68968" lon="3.79991">
        <ele>126.6</ele>
        <time>2020-08-12T07:54:43Z</time>
      </trkpt>
      <trkpt lat="43.68958" lon="3.79987">
        <ele>126.1</ele>
        <time>2020-08-12T07:54:45Z</time>
      </trkpt>
      <trkpt lat="43.68952" lon="3.79994">
        <ele>125.9</ele>
        <time>2020-08-12T07:54:47Z</time>
      </trkpt>
      <trkpt lat="43.68946" lon="3.80006">
        <ele>125.3</ele>
        <time>2020-08-12T07:54:49Z</time>
      </trkpt>
      <trkpt lat="43.68929" lon="3.80029">
        <ele>123.8</ele>
        <time>2020-08-12T07:54:53Z</time>
      </trkpt>
      <trkpt lat="43.68911" lon="3.80054">
        <ele>122.6</ele>
        <time>2020-08-12T07:54:57Z</time>
      </trkpt>
      <trkpt lat="43.68889" lon="3.80092">
        <ele>120.6</ele>
        <time>2020-08-12T07:55:02Z</time>
      </trkpt>
      <trkpt lat="43.68876" lon="3.80175">
        <ele>117.6</ele>
        <time>2020-08-12T07:55:10Z</time>
      </trkpt>
      <trkpt lat="43.68874" lon="3.802">
        <ele>116.9</ele>
        <time>2020-08-12T07:55:13Z</time>
      </trkpt>
      <trkpt lat="43.68882" lon="3.80212">
        <ele>116.5</ele>
        <time>2020-08-12T07:55:18Z</time>
      </trkpt>
    </trkseg>
  </trk>
</gpx>